EDT,Max TemperatureF,Mean TemperatureF,Min TemperatureF,Max Dew PointF,MeanDew PointF,Min DewpointF,Max Humidity, Mean Humidity, Min Humidity, Max Sea Level PressureIn, Mean Sea Level PressureIn, Min Sea Level PressureIn, Max VisibilityMiles, Mean VisibilityMiles, Min VisibilityMiles, Max Wind SpeedMPH, Mean Wind SpeedMPH, Max Gust SpeedMPH,PrecipitationIn, CloudCover, Events, WindDirDegrees
2013-3-1,34,31,28,30,26,21,87,79,69,30.07,30.00,29.94,10,10,8,10,6,,0.00,8,Rain-Snow,353
2013-3-2,28,26,25,19,18,16,73,67,63,30.09,30.07,30.05,10,10,7,12,8,,0.00,8,Rain-Snow,335
2013-3-3,30,27,24,19,16,12,80,64,47,30.11,30.08,30.05,10,10,7,15,7,,0.00,8,Snow,304
2013-3-4,40,28,16,30,18,12,89,64,34,30.19,30.11,30.03,10,10,6,9,2,,0.06,4,Rain-Snow,99
2013-3-5,37,34,31,32,29,25,100,81,64,30.07,29.76,29.59,10,6,1,16,9,21,0.48,8,Rain-Snow,54
2013-3-6,32,30,29,30,27,25,94,85,77,30.26,29.94,29.63,10,7,1,17,11,29,0.03,8,Snow,324
2013-3-7,39,34,29,28,26,23,87,74,61,30.40,30.33,30.25,10,9,6,12,4,,0.00,7,,283
2013-3-8,41,32,22,25,21,18,86,67,45,30.50,30.45,30.40,10,10,10,9,3,,0.00,1,,29
2013-3-9,53,39,25,33,28,22,86,61,41,30.41,30.25,30.06,10,10,10,14,5,,0.00,4,,106
2013-3-10,67,58,48,41,33,28,55,40,23,30.04,29.95,29.85,10,10,10,21,10,28,0.00,6,Rain,171
2013-3-11,57,48,38,50,43,31,89,79,55,29.86,29.71,29.57,10,9,2,34,16,48,1.13,8,Rain,192
2013-3-12,41,35,29,31,28,24,89,74,53,30.04,29.97,29.86,10,9,4,17,13,26,0.00,8,Rain-Snow,242
2013-3-13,33,29,24,31,21,14,90,69,51,30.32,30.14,30.00,10,9,1,23,14,30,0.02,7,Rain-Snow,268
2013-3-14,43,30,19,22,17,13,85,58,33,30.36,30.29,30.17,10,10,10,13,6,,0.00,3,,239
2013-3-15,50,39,28,41,32,20,89,74,53,30.17,29.98,29.83,10,10,10,12,6,,0.01,6,Rain,215
2013-3-16,51,42,33,45,37,28,100,84,74,30.06,29.80,29.63,10,8,3,17,7,28,0.04,7,Rain,323
2013-3-17,38,34,32,28,25,23,80,70,62,30.19,30.12,30.05,10,10,10,14,9,,0.00,8,,38
2013-3-18,49,40,32,48,36,26,100,88,70,30.04,29.77,29.61,10,8,1,20,11,32,0.82,8,Rain,160
2013-3-19,41,34,27,32,23,12,87,63,32,30.09,29.92,29.81,10,10,7,25,16,40,0.00,5,Rain,245
2013-3-20,35,29,23,18,14,8,69,53,40,30.09,30.02,29.97,10,10,10,20,12,25,0.00,4,Snow,259
2013-3-21,31,25,19,16,13,9,80,62,49,30.04,30.00,29.96,10,10,5,15,11,23,0.00,6,Snow,277
2013-3-22,43,29,16,19,15,13,85,57,32,30.09,30.05,30.01,10,10,10,10,5,,0.00,1,,247
2013-3-23,48,36,26,25,20,18,79,57,31,30.10,30.04,29.96,10,10,10,10,2,,0.00,4,,8
2013-3-24,34,32,30,32,28,21,100,83,60,29.93,29.62,29.45,10,5,0,22,12,28,0.40,8,Fog-Rain-Snow,50
2013-3-25,33,31,29,31,29,28,96,90,85,29.94,29.60,29.44,10,4,2,15,8,23,0.09,8,Rain-Snow,301
2013-3-26,40,35,31,30,28,24,93,78,54,30.23,30.09,29.95,10,10,5,14,10,18,0.02,7,Snow,295
2013-3-27,43,36,30,28,24,18,80,65,38,30.31,30.26,30.22,10,10,9,15,10,22,0.00,6,Snow,274
2013-3-28,48,36,25,26,23,20,79,57,38,30.36,30.32,30.30,10,10,10,13,6,22,0.00,1,,282
2013-3-29,54,39,24,31,27,21,88,62,38,30.34,30.29,30.23,10,10,10,13,2,,0.00,2,,275
2013-3-30,57,42,26,32,27,23,93,57,28,30.27,30.15,29.96,10,9,6,13,2,,0.00,2,Fog,151
2013-3-31,58,51,44,46,41,31,100,74,46,29.93,29.82,29.76,10,8,4,21,7,30,0.05,6,Rain,214